Time;durP1;ratioP1;P1;durP2;ratioP2;P2;SDS_P1;SDS_P2;PMS_P1;PMS_P2;Temp;Humidity;BMP_temperature;BMP_pressure;BME280_temperature;BME280_humidity;BME280_pressure;Samples;Min_cycle;Max_cycle;Signal;HPM_P1;HPM_P2
2022/01/26 00:06:41;;;;;;;59.13;29.83;;;5.40;71.40;;;;;;5096546;28;20489;-84
2022/01/26 00:09:07;;;;;;;64.30;31.40;;;5.50;71.40;;;;;;5111259;28;20552;-84
2022/01/26 00:11:34;;;;;;;69.93;34.72;;;5.30;71.40;;;;;;5114545;28;20047;-83
2022/01/26 00:14:02;;;;;;;58.33;29.52;;;5.40;71.40;;;;;;5105542;28;20061;-83
2022/01/26 00:16:38;;;;;;;65.75;32.85;;;5.40;71.40;;;;;;5097662;28;20042;-84
2022/01/26 00:19:06;;;;;;;62.55;31.27;;;5.30;71.30;;;;;;5113565;28;20077;-84
2022/01/26 00:29:23;;;;;;;60.72;31.60;;;5.30;71.50;;;;;;5114068;28;20127;-84
2022/01/26 00:40:12;;;;;;;66.57;31.83;;;5.30;71.70;;;;;;5114136;28;20043;-84
2022/01/26 00:42:40;;;;;;;63.20;31.20;;;5.30;71.70;;;;;;5084194;28;20069;-84
2022/01/26 00:45:07;;;;;;;66.03;32.70;;;5.30;71.80;;;;;;5095751;28;20093;-84
2022/01/26 00:47:33;;;;;;;58.80;30.60;;;5.30;71.90;;;;;;5099354;28;20055;-84
2022/01/26 00:50:04;;;;;;;65.80;31.30;;;5.30;71.80;;;;;;5110488;28;20043;-84
2022/01/26 00:52:39;;;;;;;66.80;32.75;;;5.30;71.80;;;;;;5114887;28;20043;-84
2022/01/26 00:55:08;;;;;;;64.50;31.35;;;5.30;71.80;;;;;;5114430;28;20169;-83
2022/01/26 00:57:33;;;;;;;62.75;32.33;;;5.30;71.80;;;;;;5096146;28;20036;-84
2022/01/26 01:00:00;;;;;;;69.32;33.22;;;5.30;71.80;;;;;;5095701;28;20064;-84
2022/01/26 01:02:26;;;;;;;62.63;31.17;;;5.20;71.70;;;;;;5096120;28;20501;-84
2022/01/26 01:04:52;;;;;;;65.35;33.22;;;5.30;71.80;;;;;;5095364;28;20050;-84
2022/01/26 01:07:21;;;;;;;61.70;31.23;;;5.30;71.80;;;;;;5099004;27;20042;-85
2022/01/26 01:09:47;;;;;;;66.80;33.70;;;5.50;72.00;;;;;;5070070;28;20173;-84
2022/01/26 01:12:13;;;;;;;64.47;31.10;;;5.30;71.90;;;;;;5088878;28;20122;-84
2022/01/26 01:14:41;;;;;;;60.70;31.25;;;5.30;71.90;;;;;;5099432;28;20040;-84
2022/01/26 01:17:12;;;;;;;65.18;32.88;;;5.50;72.10;;;;;;5100189;28;20039;-84
2022/01/26 01:19:52;;;;;;;65.95;33.50;;;5.30;72.00;;;;;;5085532;28;20040;-84
2022/01/26 01:22:38;;;;;;;65.97;32.05;;;5.30;72.00;;;;;;5091222;28;20040;-84
2022/01/26 01:25:25;;;;;;;60.33;28.75;;;5.60;72.20;;;;;;5099833;28;20557;-84
2022/01/26 01:30:50;;;;;;;60.67;30.02;;;5.30;72.00;;;;;;5034676;28;20041;-84
2022/01/26 01:33:22;;;;;;;62.67;30.40;;;5.30;72.10;;;;;;5017939;28;20045;-83
2022/01/26 01:35:49;;;;;;;65.57;31.33;;;5.30;72.10;;;;;;5035203;28;20057;-85
2022/01/26 01:38:20;;;;;;;65.60;31.30;;;5.20;72.10;;;;;;5018797;28;20500;-83
2022/01/26 01:40:50;;;;;;;67.25;32.25;;;5.30;72.20;;;;;;5027342;28;20053;-83
2022/01/26 01:43:17;;;;;;;64.13;32.13;;;5.30;72.20;;;;;;5043490;28;20025;-83
2022/01/26 01:45:47;;;;;;;63.20;31.42;;;5.20;72.20;;;;;;5042820;28;20030;-84
2022/01/26 01:48:18;;;;;;;65.18;33.60;;;5.30;72.20;;;;;;5019318;28;20088;-84
2022/01/26 01:50:45;;;;;;;66.95;33.40;;;5.50;72.30;;;;;;5007968;28;20041;-84
2022/01/26 01:53:13;;;;;;;60.15;30.75;;;5.30;72.20;;;;;;5034741;28;20037;-84
2022/01/26 01:55:46;;;;;;;64.80;33.40;;;5.30;72.10;;;;;;5017640;28;20045;-84
2022/01/26 01:58:12;;;;;;;71.05;32.58;;;5.20;72.10;;;;;;5017786;28;20135;-84
2022/01/26 02:00:38;;;;;;;73.55;34.30;;;5.30;72.10;;;;;;5032634;28;20054;-84
2022/01/26 02:03:05;;;;;;;65.30;31.70;;;5.20;72.00;;;;;;4998462;28;20041;-84
2022/01/26 02:05:30;;;;;;;70.45;32.25;;;5.20;72.00;;;;;;5030672;28;20037;-84
2022/01/26 02:07:56;;;;;;;67.50;32.00;;;5.20;72.10;;;;;;5068124;28;20098;-84
2022/01/26 02:10:24;;;;;;;63.70;30.88;;;5.20;72.10;;;;;;5095233;28;20495;-84
2022/01/26 02:12:59;;;;;;;62.90;29.80;;;5.20;72.00;;;;;;5077828;28;20558;-84
2022/01/26 02:15:33;;;;;;;67.60;30.77;;;5.30;72.10;;;;;;5094166;28;20076;-84
2022/01/26 02:21:04;;;;;;;62.00;29.42;;;5.20;72.50;;;;;;5075015;28;20055;-84
2022/01/26 02:51:16;;;;;;;56.65;26.98;;;5.10;72.20;;;;;;5095482;28;20052;-84
2022/01/26 02:53:56;;;;;;;56.22;28.45;;;5.20;72.20;;;;;;5078210;28;20479;-83
2022/01/26 02:56:31;;;;;;;55.47;27.10;;;5.10;72.10;;;;;;5076817;28;20040;-84
2022/01/26 02:59:14;;;;;;;55.10;27.08;;;5.10;72.00;;;;;;5084992;28;20040;-84
2022/01/26 03:09:35;;;;;;;54.33;25.20;;;5.10;71.90;;;;;;5058807;28;20098;-84
2022/01/26 03:12:02;;;;;;;;;;;5.10;71.90;;;;;;5057437;28;20057;-83
2022/01/26 03:14:49;;;;;;;57.30;26.50;;;5.20;71.80;;;;;;5036349;28;19921;-83
2022/01/26 03:19:48;;;;;;;49.53;23.88;;;5.10;72.00;;;;;;5050152;28;20085;-84
2022/01/26 03:28:17;;;;;;;49.40;23.20;;;5.10;72.00;;;;;;4973092;28;20499;-83
2022/01/26 03:33:24;;;;;;;55.50;26.50;;;5.10;71.90;;;;;;4971647;28;20051;-83
2022/01/26 03:35:55;;;;;;;55.25;25.30;;;5.10;71.80;;;;;;4947021;28;20062;-83
2022/01/26 03:38:30;;;;;;;54.63;25.80;;;5.10;71.70;;;;;;4939118;29;20051;-83
2022/01/26 03:41:34;;;;;;;46.75;22.35;;;5.10;71.80;;;;;;4954574;28;20062;-84
2022/01/26 03:43:47;;;;;;;50.53;24.17;;;5.10;71.80;;;;;;4973011;28;20083;-83
2022/01/26 03:46:13;;;;;;;50.40;24.17;;;5.10;71.80;;;;;;4996401;28;20140;-83
2022/01/26 03:48:39;;;;;;;52.95;24.83;;;5.10;71.80;;;;;;4995595;28;20524;-84
2022/01/26 03:51:05;;;;;;;49.53;23.70;;;5.30;71.90;;;;;;4998846;28;20090;-84
2022/01/26 03:53:31;;;;;;;55.45;25.00;;;5.10;71.80;;;;;;5013696;28;20396;-82
2022/01/26 03:55:57;;;;;;;47.72;24.92;;;5.20;71.90;;;;;;5013902;28;20054;-83
2022/01/26 03:58:22;;;;;;;49.33;24.42;;;5.30;72.00;;;;;;5002453;28;20148;-83
2022/01/26 04:00:48;;;;;;;51.60;24.65;;;5.10;71.90;;;;;;5021751;28;20603;-83
2022/01/26 04:03:14;;;;;;;48.55;23.20;;;5.10;71.90;;;;;;5083436;28;20044;-83
2022/01/26 04:05:39;;;;;;;52.47;24.90;;;5.10;71.90;;;;;;5099652;28;20032;-83
2022/01/26 04:08:14;;;;;;;49.75;24.38;;;5.10;71.90;;;;;;5103219;28;20044;-83
2022/01/26 04:10:59;;;;;;;56.50;25.08;;;5.10;71.90;;;;;;5101829;28;20089;-83
2022/01/26 04:13:25;;;;;;;47.35;23.02;;;5.10;71.90;;;;;;5105718;28;20051;-85
2022/01/26 04:15:51;;;;;;;58.88;25.65;;;5.10;71.80;;;;;;5104222;28;20126;-83
2022/01/26 04:18:22;;;;;;;50.65;23.40;;;5.10;71.60;;;;;;5110483;28;20035;-83
2022/01/26 04:20:51;;;;;;;57.58;26.27;;;5.10;71.60;;;;;;5103205;28;20075;-82
2022/01/26 04:23:28;;;;;;;52.45;23.83;;;5.10;71.70;;;;;;5078156;28;20446;-83
2022/01/26 04:25:55;;;;;;;48.95;22.42;;;5.10;71.60;;;;;;5097586;28;20071;-82
2022/01/26 04:28:31;;;;;;;55.25;26.25;;;5.10;71.50;;;;;;5106023;28;20096;-83
2022/01/26 04:30:56;;;;;;;50.53;24.15;;;5.00;71.40;;;;;;5112333;28;20055;-82
2022/01/26 04:33:22;;;;;;;55.55;27.17;;;5.10;71.50;;;;;;5128176;28;20047;-84
2022/01/26 04:35:48;;;;;;;50.50;25.02;;;5.10;71.50;;;;;;5110443;28;20028;-83
2022/01/26 04:38:26;;;;;;;47.67;21.60;;;5.10;71.50;;;;;;5091428;28;20040;-83
2022/01/26 04:43:40;;;;;;;52.28;24.52;;;5.10;71.60;;;;;;5093138;28;20484;-83
2022/01/26 04:46:06;;;;;;;55.53;24.92;;;5.00;71.40;;;;;;5098334;28;20036;-83
2022/01/26 04:48:38;;;;;;;51.50;23.35;;;5.00;71.30;;;;;;5101264;28;20131;-83
2022/01/26 04:51:03;;;;;;;54.03;25.02;;;5.00;71.10;;;;;;5100160;28;20043;-83
2022/01/26 04:53:29;;;;;;;52.88;24.00;;;5.00;71.00;;;;;;5114370;28;20044;-83
2022/01/26 04:55:54;;;;;;;47.75;22.90;;;5.00;70.90;;;;;;5102541;28;20065;-83
2022/01/26 04:58:20;;;;;;;49.42;22.83;;;5.00;70.90;;;;;;5099209;28;20044;-84
2022/01/26 05:00:46;;;;;;;57.17;24.95;;;4.90;70.80;;;;;;5088066;28;20082;-84
2022/01/26 05:03:11;;;;;;;53.55;23.50;;;4.90;70.80;;;;;;5114069;28;20043;-84
2022/01/26 05:05:37;;;;;;;53.20;24.60;;;4.90;70.80;;;;;;5079240;28;20470;-83
2022/01/26 05:08:03;;;;;;;46.00;22.15;;;4.90;70.80;;;;;;5087930;28;20371;-83
2022/01/26 05:10:29;;;;;;;44.97;21.98;;;4.90;70.90;;;;;;5113308;28;20036;-83
2022/01/26 05:12:54;;;;;;;50.50;23.80;;;4.90;71.00;;;;;;5098215;28;20093;-83
2022/01/26 05:15:23;;;;;;;55.13;25.13;;;4.90;71.00;;;;;;5095647;28;20486;-83
2022/01/26 05:17:49;;;;;;;42.50;21.52;;;4.90;71.00;;;;;;5096952;28;20039;-83
2022/01/26 05:20:15;;;;;;;43.55;20.92;;;4.90;70.90;;;;;;5075454;28;20042;-82
2022/01/26 05:22:43;;;;;;;47.38;21.98;;;4.90;70.90;;;;;;5096283;28;20382;-84
2022/01/26 05:25:10;;;;;;;49.55;21.63;;;4.90;71.00;;;;;;5095487;28;20051;-83
2022/01/26 05:27:36;;;;;;;48.20;21.50;;;4.90;71.00;;;;;;5114056;28;20048;-83
2022/01/26 05:30:03;;;;;;;45.35;21.05;;;4.90;71.10;;;;;;5114408;28;20058;-83
2022/01/26 05:32:28;;;;;;;42.65;19.75;;;4.90;71.20;;;;;;5089980;28;20189;-82
2022/01/26 05:34:54;;;;;;;50.08;22.33;;;4.90;71.20;;;;;;5097743;28;20134;-83
2022/01/26 05:37:20;;;;;;;53.25;25.02;;;4.90;71.30;;;;;;5113897;28;20042;-83
2022/01/26 05:39:45;;;;;;;55.33;23.92;;;4.90;71.20;;;;;;5089575;28;20040;-83
2022/01/26 05:42:11;;;;;;;49.20;22.08;;;4.90;71.20;;;;;;5085905;28;20382;-83
2022/01/26 05:44:37;;;;;;;47.03;21.45;;;4.80;71.00;;;;;;5113405;28;20036;-83
2022/01/26 05:47:06;;;;;;;46.95;21.25;;;4.90;71.00;;;;;;5113716;28;20149;-84
2022/01/26 05:49:32;;;;;;;48.00;21.70;;;4.80;70.90;;;;;;5113369;28;20044;-83
2022/01/26 05:51:57;;;;;;;48.40;22.25;;;4.80;70.90;;;;;;5095295;28;20047;-83
2022/01/26 05:54:23;;;;;;;45.85;22.40;;;4.80;71.00;;;;;;5100153;27;20047;-83
2022/01/26 05:56:49;;;;;;;45.17;20.48;;;4.80;71.00;;;;;;5099064;28;20075;-83
2022/01/26 05:59:16;;;;;;;46.50;23.20;;;4.80;71.10;;;;;;5116864;27;20043;-83
2022/01/26 06:01:42;;;;;;;49.28;23.20;;;4.80;71.20;;;;;;5084941;28;20086;-83
2022/01/26 06:04:08;;;;;;;49.67;22.70;;;4.80;71.10;;;;;;5085833;28;20079;-83
2022/01/26 06:06:34;;;;;;;49.25;22.80;;;5.10;71.20;;;;;;5098875;28;20070;-83
2022/01/26 06:08:59;;;;;;;46.88;20.38;;;4.80;71.00;;;;;;5101302;28;20051;-83
2022/01/26 06:11:25;;;;;;;46.40;21.88;;;4.80;71.10;;;;;;5140924;28;20032;-83
2022/01/26 06:13:51;;;;;;;46.80;21.30;;;4.80;71.20;;;;;;5140799;28;20039;-83
2022/01/26 06:16:16;;;;;;;45.72;21.55;;;4.80;71.10;;;;;;5108338;28;20043;-82
2022/01/26 06:18:43;;;;;;;44.08;20.17;;;4.80;71.20;;;;;;5098808;28;20058;-83
2022/01/26 06:21:10;;;;;;;50.45;20.98;;;4.80;71.30;;;;;;5098623;28;20031;-83
2022/01/26 06:23:35;;;;;;;49.10;24.20;;;4.80;71.80;;;;;;5116914;28;20076;-83
2022/01/26 06:26:01;;;;;;;47.22;21.52;;;4.80;71.40;;;;;;5098542;28;20044;-81
2022/01/26 06:28:28;;;;;;;46.20;22.17;;;4.80;71.40;;;;;;5082548;27;20558;-82
2022/01/26 06:30:58;;;;;;;47.20;21.85;;;4.80;71.40;;;;;;5098756;28;20039;-83
2022/01/26 06:33:25;;;;;;;48.60;23.10;;;4.80;71.40;;;;;;5098759;28;20047;-83
2022/01/26 06:35:50;;;;;;;45.63;22.55;;;4.80;71.40;;;;;;5099666;27;20115;-83
2022/01/26 06:38:16;;;;;;;48.63;21.98;;;4.80;71.40;;;;;;5120932;27;20149;-82
2022/01/26 06:40:42;;;;;;;49.30;21.45;;;4.80;71.40;;;;;;5097774;28;20078;-82
2022/01/26 06:43:14;;;;;;;43.72;22.25;;;4.80;71.40;;;;;;5107036;27;20387;-82
2022/01/26 06:45:48;;;;;;;48.00;23.52;;;4.90;71.50;;;;;;5077462;28;20398;-83
2022/01/26 06:50:59;;;;;;;46.13;21.77;;;4.90;71.50;;;;;;5098044;28;20079;-83
2022/01/26 06:53:25;;;;;;;49.33;24.70;;;4.90;71.40;;;;;;5116261;28;20071;-82
2022/01/26 06:55:51;;;;;;;51.95;25.80;;;4.90;71.40;;;;;;5101953;28;20183;-82
2022/01/26 06:58:16;;;;;;;52.08;26.15;;;4.90;71.40;;;;;;5097797;28;20044;-83
2022/01/26 07:00:42;;;;;;;55.03;25.98;;;4.90;71.30;;;;;;5115898;28;20479;-83
2022/01/26 07:03:09;;;;;;;53.63;25.48;;;4.90;71.30;;;;;;5121995;27;20043;-83
2022/01/26 07:05:34;;;;;;;55.60;28.65;;;4.90;71.30;;;;;;5095953;28;20036;-85
2022/01/26 07:08:01;;;;;;;63.05;31.45;;;4.90;71.80;;;;;;5106517;27;20493;-83
2022/01/26 07:10:28;;;;;;;56.90;28.75;;;4.90;71.20;;;;;;5079845;28;20204;-83
2022/01/26 07:12:54;;;;;;;59.92;29.00;;;5.30;71.40;;;;;;5097716;28;20097;-84
2022/01/26 07:23:36;;;;;;;67.85;33.30;;;4.90;71.30;;;;;;5076972;28;20058;-86
2022/01/26 07:26:03;;;;;;;68.00;32.63;;;4.90;71.30;;;;;;5077091;28;20052;-83
2022/01/26 07:28:34;;;;;;;61.80;32.33;;;4.90;71.30;;;;;;5083476;28;20081;-86
2022/01/26 07:31:00;;;;;;;62.97;31.05;;;5.20;71.50;;;;;;5091004;28;20059;-84
2022/01/26 07:33:25;;;;;;;62.13;32.20;;;5.00;71.40;;;;;;5114554;28;20466;-83
2022/01/26 07:35:51;;;;;;;66.07;34.17;;;4.90;71.30;;;;;;5115418;28;20400;-83
2022/01/26 07:38:17;;;;;;;71.15;34.85;;;5.00;71.40;;;;;;5097097;28;20032;-83
2022/01/26 07:40:42;;;;;;;67.55;33.97;;;5.00;71.40;;;;;;5100007;28;20032;-83
2022/01/26 07:43:08;;;;;;;68.93;34.65;;;5.20;71.50;;;;;;5115394;28;20467;-82
2022/01/26 07:45:33;;;;;;;77.40;35.17;;;5.00;71.40;;;;;;5096890;28;20047;-83
2022/01/26 07:47:59;;;;;;;74.20;37.83;;;5.00;71.40;;;;;;5114922;28;20079;-83
2022/01/26 07:50:25;;;;;;;83.05;41.38;;;5.00;71.50;;;;;;5096601;28;20043;-83
2022/01/26 07:52:51;;;;;;;76.80;39.05;;;5.00;71.40;;;;;;5114223;28;20081;-83
2022/01/26 07:55:19;;;;;;;73.88;37.80;;;5.00;71.40;;;;;;5114812;28;20406;-83
2022/01/26 07:57:48;;;;;;;75.40;37.33;;;5.00;71.40;;;;;;5114981;28;20046;-83
2022/01/26 08:00:14;;;;;;;82.53;41.13;;;5.00;71.40;;;;;;5096837;28;20375;-83
2022/01/26 08:02:41;;;;;;;71.70;37.50;;;5.00;71.50;;;;;;5105881;28;20047;-83
2022/01/26 08:05:07;;;;;;;79.00;41.13;;;5.00;71.50;;;;;;5113410;28;20043;-83
2022/01/26 08:07:33;;;;;;;76.78;40.03;;;5.00;71.50;;;;;;5113917;28;20080;-82
2022/01/26 08:09:59;;;;;;;84.32;42.53;;;5.00;71.50;;;;;;5113135;28;20506;-83
2022/01/26 08:12:25;;;;;;;82.35;42.33;;;5.00;71.50;;;;;;5111955;28;20046;-83
2022/01/26 08:14:58;;;;;;;86.97;44.83;;;5.10;71.60;;;;;;5114183;28;20040;-83
2022/01/26 08:17:24;;;;;;;86.93;43.00;;;5.10;71.60;;;;;;5113719;28;20442;-83
2022/01/26 08:19:52;;;;;;;93.50;47.05;;;5.00;71.60;;;;;;5096347;28;20051;-83
2022/01/26 08:22:19;;;;;;;89.50;46.03;;;5.00;71.60;;;;;;5114588;28;20040;-83
2022/01/26 08:24:46;;;;;;;89.50;42.55;;;5.10;71.60;;;;;;5096365;28;20124;-83
2022/01/26 08:27:14;;;;;;;88.20;45.17;;;5.10;71.60;;;;;;5114511;28;20506;-83
2022/01/26 08:29:47;;;;;;;91.20;45.83;;;5.10;71.70;;;;;;5096250;28;20490;-83
2022/01/26 08:32:13;;;;;;;90.18;45.05;;;5.10;71.70;;;;;;5096427;28;20044;-83
2022/01/26 08:34:39;;;;;;;95.55;47.38;;;5.10;71.70;;;;;;5114156;28;20039;-83
2022/01/26 08:37:05;;;;;;;93.65;46.03;;;5.10;71.70;;;;;;5096354;28;20044;-83
2022/01/26 08:39:32;;;;;;;94.65;46.63;;;5.50;72.00;;;;;;5114173;28;20074;-83
2022/01/26 08:41:59;;;;;;;89.10;44.38;;;5.10;71.80;;;;;;5114280;28;20126;-83
2022/01/26 08:44:26;;;;;;;95.53;49.72;;;5.10;71.90;;;;;;5113812;28;20044;-83
2022/01/26 08:46:53;;;;;;;97.68;49.00;;;5.20;71.90;;;;;;5095764;28;20099;-83
2022/01/26 08:49:19;;;;;;;91.88;47.45;;;5.10;71.80;;;;;;5079483;28;20142;-83
2022/01/26 08:51:48;;;;;;;96.80;48.60;;;5.20;71.90;;;;;;5100040;28;20526;-83
2022/01/26 08:54:14;;;;;;;97.20;47.83;;;5.50;72.50;;;;;;5112879;28;20066;-83
2022/01/26 08:56:40;;;;;;;94.20;48.05;;;5.20;71.90;;;;;;5093835;28;20073;-83
2022/01/26 08:59:06;;;;;;;93.40;45.55;;;5.10;71.90;;;;;;5058908;28;20417;-83
2022/01/26 09:01:31;;;;;;;93.05;48.15;;;5.20;71.90;;;;;;5078675;28;20619;-83
2022/01/26 09:03:57;;;;;;;101.22;48.83;;;5.20;72.00;;;;;;5114245;28;20386;-83
2022/01/26 09:06:23;;;;;;;93.43;47.80;;;5.20;72.00;;;;;;5096637;28;20039;-83
2022/01/26 09:08:58;;;;;;;97.95;46.97;;;5.20;72.00;;;;;;5095789;28;20081;-83
2022/01/26 09:11:24;;;;;;;91.43;46.10;;;5.20;72.00;;;;;;5114028;28;20051;-83
2022/01/26 09:13:56;;;;;;;92.55;46.50;;;5.30;72.10;;;;;;5095808;28;20040;-83
2022/01/26 09:16:24;;;;;;;94.63;46.88;;;5.30;72.00;;;;;;5097100;28;20040;-83
2022/01/26 09:18:54;;;;;;;93.93;47.38;;;5.30;72.00;;;;;;5113997;28;20050;-83
2022/01/26 09:21:21;;;;;;;94.32;45.88;;;5.30;72.00;;;;;;5112952;28;20040;-83
2022/01/26 09:23:47;;;;;;;97.90;48.28;;;5.30;72.00;;;;;;5096117;28;20484;-83
2022/01/26 09:26:14;;;;;;;92.10;45.28;;;5.40;72.10;;;;;;5095201;28;20074;-83
2022/01/26 09:28:40;;;;;;;92.72;47.10;;;5.30;72.00;;;;;;5117479;28;20036;-83
2022/01/26 09:31:05;;;;;;;92.90;47.22;;;5.30;72.00;;;;;;5100185;28;20035;-83
2022/01/26 09:33:31;;;;;;;91.15;46.00;;;5.30;72.00;;;;;;5099832;28;20088;-83
2022/01/26 09:35:57;;;;;;;91.78;44.47;;;5.30;72.00;;;;;;5099594;28;20390;-83
2022/01/26 09:38:23;;;;;;;89.45;44.72;;;5.70;72.30;;;;;;5117356;28;20044;-83
2022/01/26 09:40:49;;;;;;;86.80;43.38;;;5.40;72.10;;;;;;5117791;28;20056;-83
2022/01/26 09:43:17;;;;;;;84.43;43.55;;;5.40;72.10;;;;;;5099532;28;20044;-83
2022/01/26 09:45:44;;;;;;;86.05;42.88;;;5.40;72.10;;;;;;5117282;28;20181;-83
2022/01/26 09:48:11;;;;;;;85.95;43.35;;;5.40;72.10;;;;;;5099935;28;20055;-83
2022/01/26 09:50:36;;;;;;;83.07;42.78;;;5.40;72.10;;;;;;5099227;28;20101;-84
2022/01/26 09:53:03;;;;;;;78.22;40.72;;;5.40;72.00;;;;;;5099502;28;20408;-84
2022/01/26 09:55:30;;;;;;;77.82;40.58;;;5.40;72.40;;;;;;5117217;28;20051;-83
2022/01/26 09:57:58;;;;;;;66.80;36.85;;;5.40;72.00;;;;;;5116080;28;20051;-83
2022/01/26 10:00:26;;;;;;;81.30;39.97;;;5.50;71.90;;;;;;5114782;28;20047;-83
2022/01/26 10:02:59;;;;;;;73.32;38.28;;;5.50;71.90;;;;;;5098615;28;20474;-83
2022/01/26 10:05:25;;;;;;;68.10;36.03;;;5.50;71.90;;;;;;5115960;28;20047;-84
2022/01/26 10:15:26;;;;;;;73.68;36.90;;;5.50;71.90;;;;;;5078587;28;20194;-83
2022/01/26 10:18:39;;;;;;;71.53;35.50;;;5.70;71.80;;;;;;5108635;28;20050;-83
2022/01/26 10:21:08;;;;;;;69.25;35.53;;;5.50;71.70;;;;;;5115475;28;20043;-83
2022/01/26 10:23:40;;;;;;;68.30;35.28;;;5.60;71.80;;;;;;5116876;28;20421;-83
2022/01/26 10:26:08;;;;;;;70.88;36.28;;;5.70;71.80;;;;;;5117646;28;20057;-84
2022/01/26 10:28:45;;;;;;;70.00;36.53;;;5.60;71.70;;;;;;5115976;28;20130;-83
2022/01/26 10:31:22;;;;;;;77.32;38.53;;;5.60;71.60;;;;;;5105118;28;20398;-84
2022/01/26 10:34:00;;;;;;;73.90;37.58;;;5.60;71.60;;;;;;5101474;28;20044;-84
2022/01/26 10:36:38;;;;;;;75.15;37.35;;;5.60;71.60;;;;;;5101307;28;20077;-83
2022/01/26 10:39:12;;;;;;;72.78;37.22;;;5.60;71.60;;;;;;5116507;28;20046;-84
2022/01/26 10:41:40;;;;;;;68.68;34.45;;;5.60;71.50;;;;;;5090312;28;20047;-84
2022/01/26 10:44:07;;;;;;;66.20;35.70;;;5.60;71.50;;;;;;5115463;28;20059;-85
2022/01/26 10:46:39;;;;;;;70.72;36.63;;;5.60;71.60;;;;;;5114290;28;20044;-84
2022/01/26 10:49:18;;;;;;;69.88;35.85;;;5.60;71.60;;;;;;5098383;28;20047;-84
2022/01/26 10:54:22;;;;;;;66.28;34.72;;;5.90;71.80;;;;;;5116739;28;20044;-84
2022/01/26 10:56:49;;;;;;;72.70;37.38;;;5.70;71.60;;;;;;5115919;28;20060;-84
2022/01/26 10:59:15;;;;;;;71.15;36.72;;;5.70;71.60;;;;;;5115833;28;20043;-83
2022/01/26 11:01:40;;;;;;;73.80;37.10;;;5.70;71.60;;;;;;5112110;28;20122;-84
2022/01/26 11:04:08;;;;;;;73.07;38.13;;;5.70;71.50;;;;;;5115331;28;20122;-84
2022/01/26 11:06:35;;;;;;;80.43;38.72;;;5.90;71.70;;;;;;5116040;28;20047;-84
2022/01/26 11:09:08;;;;;;;90.32;46.00;;;5.70;71.60;;;;;;5097927;28;20505;-84
2022/01/26 11:11:34;;;;;;;104.35;49.38;;;6.00;71.70;;;;;;5097426;28;20079;-84
2022/01/26 11:14:00;;;;;;;105.53;51.97;;;5.70;71.50;;;;;;5115869;28;20032;-84
2022/01/26 11:16:25;;;;;;;100.28;49.35;;;5.80;71.50;;;;;;5116166;28;20044;-84
2022/01/26 11:18:58;;;;;;;103.05;48.85;;;5.80;71.50;;;;;;5097858;28;20045;-84
2022/01/26 11:21:24;;;;;;;107.88;50.13;;;5.80;71.50;;;;;;5097516;28;20197;-84
2022/01/26 11:23:51;;;;;;;110.18;54.83;;;5.80;71.50;;;;;;5106326;28;20068;-84
2022/01/26 11:26:24;;;;;;;108.15;53.63;;;5.80;71.60;;;;;;5077967;28;20093;-84
2022/01/26 11:28:50;;;;;;;98.55;50.65;;;5.80;71.30;;;;;;5077231;28;20043;-84
2022/01/26 11:31:17;;;;;;;98.65;49.88;;;5.80;71.30;;;;;;5091847;28;20043;-84
2022/01/26 11:33:44;;;;;;;98.88;48.33;;;6.00;71.40;;;;;;5095673;28;20078;-84
2022/01/26 11:36:14;;;;;;;102.97;50.70;;;5.80;71.30;;;;;;5114420;28;20130;-84
2022/01/26 11:47:06;;;;;;;93.07;47.97;;;5.80;71.20;;;;;;5113783;28;20483;-85
2022/01/26 11:49:36;;;;;;;91.82;46.28;;;5.90;71.30;;;;;;5114347;28;20138;-84
2022/01/26 11:52:02;;;;;;;97.22;48.60;;;5.80;71.30;;;;;;5114111;28;20134;-85
2022/01/26 11:54:42;;;;;;;83.15;43.00;;;5.80;71.30;;;;;;5115077;27;20130;-84
2022/01/26 11:57:14;;;;;;;76.95;39.05;;;5.90;71.30;;;;;;5115264;28;20123;-85
2022/01/26 11:59:48;;;;;;;83.57;41.90;;;5.90;71.40;;;;;;5114912;28;20047;-85
2022/01/26 12:02:33;;;;;;;75.13;40.45;;;6.00;71.50;;;;;;5114299;28;20444;-85
2022/01/26 12:05:02;;;;;;;74.55;38.22;;;5.90;71.50;;;;;;5096366;28;20110;-85
2022/01/26 12:07:28;;;;;;;72.70;39.35;;;5.90;71.50;;;;;;5114653;28;20047;-85
2022/01/26 12:09:56;;;;;;;77.50;41.47;;;5.90;71.50;;;;;;5113319;28;20077;-86
2022/01/26 12:12:24;;;;;;;66.47;34.72;;;6.10;71.70;;;;;;5113905;28;20044;-85
2022/01/26 12:15:03;;;;;;;66.28;34.60;;;6.50;71.90;;;;;;5114586;28;20364;-85
2022/01/26 12:17:34;;;;;;;73.70;36.83;;;6.00;71.70;;;;;;5114378;28;20079;-85
2022/01/26 12:34:56;;;;;;;65.15;34.13;;;6.30;71.90;;;;;;4994807;28;20142;-85
2022/01/26 12:37:38;;;;;;;63.38;34.65;;;6.00;71.70;;;;;;4976416;28;20088;-85
2022/01/26 12:45:21;;;;;;;60.63;32.28;;;6.10;71.90;;;;;;5010295;28;20046;-85
2022/01/26 12:47:49;;;;;;;66.15;33.42;;;6.50;72.20;;;;;;4995924;28;20054;-85
2022/01/26 12:50:16;;;;;;;60.25;31.63;;;6.10;71.90;;;;;;4995809;28;20054;-86
2022/01/26 12:52:50;;;;;;;59.15;31.75;;;6.10;71.90;;;;;;4995661;28;20073;-86
2022/01/26 12:55:27;;;;;;;62.80;31.23;;;6.40;72.10;;;;;;4995476;28;20520;-86
2022/01/26 12:57:57;;;;;;;59.28;31.13;;;6.10;71.90;;;;;;4994325;28;20458;-86
2022/01/26 13:00:25;;;;;;;54.35;29.55;;;6.20;72.00;;;;;;4995769;28;20096;-85
2022/01/26 13:02:52;;;;;;;55.60;29.98;;;6.10;72.00;;;;;;5016147;28;20137;-86
2022/01/26 13:05:26;;;;;;;55.97;30.60;;;6.10;72.00;;;;;;5043929;28;20054;-86
2022/01/26 13:08:02;;;;;;;;;;;6.10;72.00;;;;;;5101672;28;20043;-85
2022/01/26 13:10:30;;;;;;;55.75;28.45;;;6.10;71.90;;;;;;5118511;28;20014;-85
2022/01/26 13:13:10;;;;;;;54.83;28.38;;;6.30;72.20;;;;;;5100417;28;20051;-85
2022/01/26 13:15:43;;;;;;;55.25;29.40;;;6.10;72.00;;;;;;5100196;28;20039;-85
2022/01/26 13:24:14;;;;;;;55.38;28.17;;;6.10;72.20;;;;;;5003695;28;20101;-85
2022/01/26 13:26:51;;;;;;;59.25;29.70;;;6.10;72.20;;;;;;4999324;28;20509;-85
2022/01/26 13:29:40;;;;;;;56.03;28.80;;;6.10;72.30;;;;;;4999112;28;20038;-85
2022/01/26 13:32:43;;;;;;;54.63;28.17;;;6.40;72.50;;;;;;4999415;28;20057;-85
2022/01/26 13:35:17;;;;;;;54.22;30.30;;;6.10;72.50;;;;;;4999353;28;20046;-83
2022/01/26 13:40:27;;;;;;;48.80;27.10;;;6.10;72.60;;;;;;4980777;28;20525;-85
2022/01/26 13:43:30;;;;;;;56.00;28.77;;;6.60;73.00;;;;;;4979445;28;20053;-84
2022/01/26 13:46:17;;;;;;;52.63;28.58;;;6.20;72.80;;;;;;5010028;28;20057;-86
2022/01/26 13:51:32;;;;;;;54.22;28.23;;;6.10;72.70;;;;;;5011126;28;20121;-86
2022/01/26 13:56:58;;;;;;;52.30;27.70;;;6.50;72.90;;;;;;4998774;28;20141;-87
2022/01/26 13:59:37;;;;;;;56.55;29.33;;;6.20;72.80;;;;;;5091478;28;20035;-86
2022/01/26 14:02:03;;;;;;;51.53;28.35;;;6.60;73.10;;;;;;5117466;28;20165;-86
2022/01/26 14:04:29;;;;;;;49.33;26.88;;;6.20;72.80;;;;;;5106800;28;20079;-85
2022/01/26 14:06:54;;;;;;;52.65;29.73;;;6.60;73.00;;;;;;5089369;28;20039;-86
2022/01/26 14:09:20;;;;;;;56.40;30.42;;;6.70;73.10;;;;;;5116167;28;20432;-87
2022/01/26 14:11:48;;;;;;;57.70;29.90;;;6.20;72.70;;;;;;5103099;28;20046;-86
2022/01/26 14:14:21;;;;;;;51.83;27.35;;;6.50;72.90;;;;;;5115292;28;20039;-86
2022/01/26 14:16:56;;;;;;;46.55;27.02;;;6.40;72.90;;;;;;5116866;28;20047;-87
2022/01/26 14:22:29;;;;;;;55.78;27.70;;;6.30;72.70;;;;;;5115665;28;19964;-86
2022/01/26 14:25:16;;;;;;;53.05;27.52;;;6.20;72.80;;;;;;5116131;28;20096;-86
2022/01/26 14:27:50;;;;;;;51.55;26.63;;;6.20;72.80;;;;;;5061628;28;20052;-86
2022/01/26 14:30:32;;;;;;;54.00;27.25;;;6.70;73.00;;;;;;5062275;28;20051;-87
2022/01/26 14:33:31;;;;;;;46.88;26.98;;;6.30;72.70;;;;;;5056367;28;20099;-86
2022/01/26 15:00:45;;;;;;;49.45;25.98;;;6.40;72.80;;;;;;5081696;28;20053;-86
2022/01/26 15:08:47;;;;;;;44.38;25.55;;;6.40;72.90;;;;;;5065443;28;20045;-88
2022/01/26 15:29:53;;;;;;;50.67;27.98;;;6.40;72.90;;;;;;5075906;28;20055;-86
2022/01/26 15:29:59;;;;;;;53.22;25.90;;;6.40;72.80;;;;;;5075173;28;20051;-86
2022/01/26 15:43:51;;;;;;;57.88;29.10;;;6.40;73.00;;;;;;5066758;28;20036;-88
2022/01/26 15:52:10;;;;;;;63.17;30.00;;;6.50;73.20;;;;;;5004326;28;20521;-87
2022/01/26 16:04:22;;;;;;;62.53;32.28;;;6.40;73.10;;;;;;4988207;28;20057;-87
2022/01/26 16:06:07;;;;;;;37.95;21.67;;;6.40;73.20;;;;;;5001011;28;20050;-87
2022/01/26 16:08:32;;;;;;;53.42;28.67;;;6.40;73.10;;;;;;4997431;28;20046;-87
2022/01/26 16:16:41;;;;;;;55.97;29.73;;;6.40;73.30;;;;;;4985033;28;20547;-87
2022/01/26 16:38:03;;;;;;;58.85;33.22;;;6.40;73.40;;;;;;5074178;28;20048;-87
2022/01/26 17:24:24;;;;;;;48.85;28.90;;;6.30;73.80;;;;;;5050079;28;20132;-87
2022/01/26 18:16:30;;;;;;;39.97;21.83;;;6.30;74.60;;;;;;4954912;29;20046;-83
2022/01/26 18:51:24;;;;;;;29.65;17.75;;;6.40;75.10;;;;;;4993428;28;20046;-81
2022/01/26 18:53:49;;;;;;;34.97;19.00;;;6.40;75.10;;;;;;4958548;28;20552;-79
2022/01/26 18:56:15;;;;;;;36.88;18.90;;;6.50;75.00;;;;;;4974088;28;20055;-81